Time;durP1;ratioP1;P1;durP2;ratioP2;P2;SDS_P1;SDS_P2;PMS_P1;PMS_P2;Temp;Humidity;BMP_temperature;BMP_pressure;BME280_temperature;BME280_humidity;BME280_pressure;Samples;Min_cycle;Max_cycle;Signal;HPM_P1;HPM_P2
2023/05/01 00:01:04;;;;;;;9.60;5.25;;;;;;;;;;5093614;27;20398;-73
2023/05/01 00:03:30;;;;;;;8.60;5.05;;;;;;;;;;5092332;27;20051;-72
2023/05/01 00:06:01;;;;;;;7.70;5.10;;;;;;;;;;5086898;27;20061;-72
2023/05/01 00:08:27;;;;;;;14.98;5.07;;;;;;;;;;5106935;27;20058;-73
2023/05/01 00:10:53;;;;;;;11.93;5.55;;;;;;;;;;5096827;27;20108;-73
2023/05/01 00:13:21;;;;;;;15.57;5.50;;;;;;;;;;5094034;27;20074;-73
2023/05/01 00:15:48;;;;;;;10.75;5.25;;;;;;;;;;5071368;27;20043;-73
2023/05/01 00:18:14;;;;;;;9.38;4.82;;;;;;;;;;5093586;27;20981;-73
2023/05/01 00:20:40;;;;;;;12.55;6.13;;;;;;;;;;5096243;27;20062;-73
2023/05/01 00:23:07;;;;;;;10.82;5.85;;;;;;;;;;5091137;27;20051;-73
2023/05/01 00:25:33;;;;;;;11.82;6.90;;;;;;;;;;5094137;27;20051;-73
2023/05/01 00:27:59;;;;;;;12.20;6.35;;;;;;;;;;5092444;27;20036;-73
2023/05/01 00:30:29;;;;;;;12.15;6.68;;;;;;;;;;5077547;27;20066;-73
2023/05/01 00:32:55;;;;;;;18.50;7.68;;;;;;;;;;5092493;27;20041;-73
2023/05/01 00:35:21;;;;;;;14.15;7.15;;;;;;;;;;5094784;27;20173;-73
2023/05/01 00:37:47;;;;;;;16.67;7.63;;;;;;;;;;5094244;27;20147;-73
2023/05/01 00:40:13;;;;;;;16.02;7.00;;;;;;;;;;5095499;27;20167;-73
2023/05/01 00:42:39;;;;;;;14.05;7.25;;;;;;;;;;5093195;27;20040;-73
2023/05/01 00:45:06;;;;;;;15.32;7.63;;;;;;;;;;5072273;27;20101;-73
2023/05/01 00:47:33;;;;;;;14.05;7.78;;;;;;;;;;5093802;27;20357;-73
2023/05/01 00:50:00;;;;;;;14.13;7.32;;;;;;;;;;5093829;27;20166;-73
2023/05/01 00:52:26;;;;;;;16.88;6.85;;;;;;;;;;5092574;27;20884;-73
2023/05/01 00:54:53;;;;;;;24.17;7.57;;;;;;;;;;5092177;27;20067;-73
2023/05/01 00:57:22;;;;;;;9.30;6.30;;;;;;;;;;5091360;27;20658;-73
2023/05/01 00:59:48;;;;;;;12.98;6.45;;;;;;;;;;5089731;27;20054;-73
2023/05/01 01:02:15;;;;;;;11.45;6.18;;;;;;;;;;5089218;27;20137;-73
2023/05/01 01:04:44;;;;;;;10.27;6.88;;;;;;;;;;5090377;27;20047;-73
2023/05/01 01:07:28;;;;;;;10.13;6.93;;;;;;;;;;5083565;27;20038;-73
2023/05/01 01:09:57;;;;;;;13.15;6.90;;;;;;;;;;5089939;27;20039;-73
2023/05/01 01:12:26;;;;;;;13.38;6.72;;;;;;;;;;5088590;27;20420;-73
2023/05/01 01:15:06;;;;;;;14.75;7.43;;;;;;;;;;5087195;27;20039;-73
2023/05/01 01:17:48;;;;;;;12.27;7.78;;;;;;;;;;5090808;27;20923;-73
2023/05/01 01:20:24;;;;;;;16.30;7.82;;;;;;;;;;5087311;27;21183;-73
2023/05/01 01:23:00;;;;;;;16.92;7.57;;;;;;;;;;5087081;27;20406;-73
2023/05/01 01:25:41;;;;;;;12.88;7.28;;;;;;;;;;5088020;27;20035;-73
2023/05/01 01:28:20;;;;;;;16.10;7.65;;;;;;;;;;5086969;27;20047;-73
2023/05/01 01:30:46;;;;;;;13.52;7.78;;;;;;;;;;5084115;27;20047;-73
2023/05/01 01:33:25;;;;;;;13.38;7.55;;;;;;;;;;5086165;27;21810;-72
2023/05/01 01:35:56;;;;;;;12.38;7.55;;;;;;;;;;5066572;27;20043;-72
2023/05/01 01:38:30;;;;;;;10.27;7.35;;;;;;;;;;5085987;27;22838;-73
2023/05/01 01:41:22;;;;;;;18.63;7.93;;;;;;;;;;5079783;27;20065;-73
2023/05/01 01:43:52;;;;;;;15.00;8.02;;;;;;;;;;5034033;28;20065;-73
2023/05/01 01:46:20;;;;;;;13.75;7.53;;;;;;;;;;5083332;27;20046;-73
2023/05/01 01:48:47;;;;;;;13.55;7.75;;;;;;;;;;5086182;27;20059;-72
2023/05/01 01:51:14;;;;;;;11.77;7.13;;;;;;;;;;5082519;27;20052;-73
2023/05/01 01:53:44;;;;;;;10.55;6.88;;;;;;;;;;5086432;27;22171;-73
2023/05/01 01:56:11;;;;;;;11.75;6.93;;;;;;;;;;5087722;27;20047;-73
2023/05/01 01:58:39;;;;;;;15.40;8.50;;;;;;;;;;5085498;27;20039;-73
2023/05/01 02:01:06;;;;;;;11.10;8.32;;;;;;;;;;5088878;27;20547;-73
2023/05/01 02:03:33;;;;;;;12.23;7.85;;;;;;;;;;5087090;27;20048;-73
2023/05/01 02:06:00;;;;;;;16.83;8.55;;;;;;;;;;5085740;27;20193;-72
2023/05/01 02:08:27;;;;;;;12.77;6.75;;;;;;;;;;5085887;27;20130;-73
2023/05/01 02:10:58;;;;;;;10.93;7.82;;;;;;;;;;5058476;28;20044;-73
2023/05/01 02:13:26;;;;;;;14.70;7.50;;;;;;;;;;5087865;27;20047;-73
2023/05/01 02:15:53;;;;;;;11.73;7.53;;;;;;;;;;5087363;27;20207;-73
2023/05/01 02:18:20;;;;;;;10.23;6.80;;;;;;;;;;5088925;27;20051;-73
2023/05/01 02:20:46;;;;;;;12.07;7.50;;;;;;;;;;5084435;27;20050;-73
2023/05/01 02:23:12;;;;;;;13.30;8.07;;;;;;;;;;5076517;27;20134;-73
2023/05/01 02:25:39;;;;;;;13.27;8.10;;;;;;;;;;5086585;27;20053;-73
2023/05/01 02:28:10;;;;;;;13.38;8.55;;;;;;;;;;5086411;27;20048;-73
2023/05/01 02:30:36;;;;;;;15.43;7.72;;;;;;;;;;5089010;27;20043;-72
2023/05/01 02:33:03;;;;;;;14.88;7.63;;;;;;;;;;5084524;27;20188;-73
2023/05/01 02:35:29;;;;;;;11.25;7.35;;;;;;;;;;5086277;27;20554;-73
2023/05/01 02:37:55;;;;;;;17.38;8.52;;;;;;;;;;5088064;27;20058;-72
2023/05/01 02:40:21;;;;;;;12.32;7.30;;;;;;;;;;5082821;27;20793;-72
2023/05/01 02:42:47;;;;;;;18.77;7.57;;;;;;;;;;5084206;27;20043;-72
2023/05/01 02:45:20;;;;;;;12.48;6.90;;;;;;;;;;5081215;27;20125;-72
2023/05/01 02:47:50;;;;;;;12.43;7.30;;;;;;;;;;5084215;27;20047;-72
2023/05/01 02:50:16;;;;;;;13.77;7.15;;;;;;;;;;5083400;27;20059;-72
2023/05/01 02:52:43;;;;;;;16.58;8.05;;;;;;;;;;5084915;27;20035;-72
2023/05/01 02:55:09;;;;;;;12.88;7.13;;;;;;;;;;5084558;27;20051;-72
2023/05/01 02:57:35;;;;;;;16.17;7.65;;;;;;;;;;5086110;27;20040;-72
2023/05/01 03:00:02;;;;;;;11.30;6.55;;;;;;;;;;5085690;27;20213;-72
2023/05/01 03:02:28;;;;;;;12.60;7.20;;;;;;;;;;5085998;27;20051;-72
2023/05/01 03:04:54;;;;;;;11.75;7.13;;;;;;;;;;5080878;27;20039;-72
2023/05/01 03:07:20;;;;;;;15.55;8.10;;;;;;;;;;5058371;28;20048;-72
2023/05/01 03:09:46;;;;;;;11.63;6.40;;;;;;;;;;5063328;28;20054;-72
2023/05/01 03:12:12;;;;;;;11.98;8.10;;;;;;;;;;5101852;27;20048;-72
2023/05/01 03:14:38;;;;;;;12.90;7.03;;;;;;;;;;5085293;27;20047;-72
2023/05/01 03:17:04;;;;;;;14.05;6.60;;;;;;;;;;5088558;28;20196;-72
2023/05/01 03:19:31;;;;;;;10.10;7.07;;;;;;;;;;5085345;27;20047;-72
2023/05/01 03:21:58;;;;;;;15.15;7.60;;;;;;;;;;5085585;27;20063;-72
2023/05/01 03:24:24;;;;;;;15.25;8.27;;;;;;;;;;5071503;28;20047;-72
2023/05/01 03:26:50;;;;;;;11.13;7.68;;;;;;;;;;5088647;27;20084;-72
2023/05/01 03:29:16;;;;;;;12.57;8.55;;;;;;;;;;5081896;27;20127;-72
2023/05/01 03:31:42;;;;;;;12.07;7.43;;;;;;;;;;5083281;27;20063;-72
2023/05/01 03:34:08;;;;;;;14.52;7.60;;;;;;;;;;5085147;28;20043;-72
2023/05/01 03:36:34;;;;;;;15.63;9.30;;;;;;;;;;5086482;27;20035;-72
2023/05/01 03:39:00;;;;;;;19.38;7.63;;;;;;;;;;5081648;27;20047;-72
2023/05/01 03:41:26;;;;;;;11.15;7.68;;;;;;;;;;5085439;27;20052;-72
2023/05/01 03:43:52;;;;;;;13.60;7.90;;;;;;;;;;5060483;28;20054;-72
2023/05/01 03:46:18;;;;;;;13.73;7.97;;;;;;;;;;5060086;28;20043;-75
2023/05/01 03:48:44;;;;;;;18.27;7.90;;;;;;;;;;5079751;28;20055;-75
2023/05/01 03:51:10;;;;;;;12.82;8.05;;;;;;;;;;5097811;27;20089;-74
2023/05/01 03:53:37;;;;;;;15.30;8.30;;;;;;;;;;5083452;27;20047;-72
2023/05/01 03:56:03;;;;;;;13.23;8.68;;;;;;;;;;5084774;27;20080;-72
2023/05/01 03:58:29;;;;;;;18.23;8.85;;;;;;;;;;5074048;27;20237;-72
2023/05/01 04:00:57;;;;;;;12.57;7.82;;;;;;;;;;5078677;27;20591;-72
2023/05/01 04:03:23;;;;;;;12.23;7.82;;;;;;;;;;5087483;27;20051;-72
2023/05/01 04:05:49;;;;;;;17.98;9.52;;;;;;;;;;5057987;28;20051;-72
2023/05/01 04:08:15;;;;;;;12.98;7.88;;;;;;;;;;5086152;27;20048;-72
2023/05/01 04:10:41;;;;;;;18.02;8.20;;;;;;;;;;5090894;27;20517;-72
2023/05/01 04:13:07;;;;;;;13.98;8.20;;;;;;;;;;5079711;27;20050;-71
2023/05/01 04:15:34;;;;;;;16.67;8.68;;;;;;;;;;5089096;27;20047;-72
2023/05/01 04:18:01;;;;;;;13.90;8.20;;;;;;;;;;5090166;27;21948;-72
2023/05/01 04:20:27;;;;;;;19.13;8.25;;;;;;;;;;5087192;27;20185;-72
2023/05/01 04:22:53;;;;;;;15.95;8.73;;;;;;;;;;5087743;27;20048;-74
2023/05/01 04:25:20;;;;;;;16.92;8.52;;;;;;;;;;5053082;28;20051;-76
2023/05/01 04:27:46;;;;;;;12.77;8.35;;;;;;;;;;5087679;27;20561;-72
2023/05/01 04:30:12;;;;;;;12.95;7.93;;;;;;;;;;5065706;27;21627;-72
2023/05/01 04:32:38;;;;;;;15.38;8.50;;;;;;;;;;5093583;27;20464;-72
2023/05/01 04:35:04;;;;;;;13.27;8.65;;;;;;;;;;5089411;27;20040;-75
2023/05/01 04:37:30;;;;;;;14.82;8.70;;;;;;;;;;5091067;27;20044;-75
2023/05/01 04:39:56;;;;;;;14.57;8.52;;;;;;;;;;5066957;27;20047;-75
2023/05/01 04:42:22;;;;;;;14.05;8.55;;;;;;;;;;5095083;27;20076;-74
2023/05/01 04:44:48;;;;;;;15.52;8.43;;;;;;;;;;5086960;27;20562;-75
2023/05/01 04:47:14;;;;;;;20.83;9.60;;;;;;;;;;5089128;27;20039;-76
2023/05/01 04:49:40;;;;;;;12.65;8.75;;;;;;;;;;5089050;27;20048;-75
2023/05/01 04:52:07;;;;;;;14.38;8.75;;;;;;;;;;5089213;27;20425;-75
2023/05/01 04:54:33;;;;;;;15.60;9.25;;;;;;;;;;5086248;27;20056;-75
2023/05/01 04:56:59;;;;;;;20.05;9.52;;;;;;;;;;5081692;27;20407;-75
2023/05/01 04:59:25;;;;;;;16.27;9.38;;;;;;;;;;5088997;27;20040;-75
2023/05/01 05:01:51;;;;;;;17.95;9.18;;;;;;;;;;5087929;27;20072;-75
2023/05/01 05:04:17;;;;;;;13.65;8.80;;;;;;;;;;5090007;27;20051;-74
2023/05/01 05:06:43;;;;;;;12.95;8.93;;;;;;;;;;5090239;27;20048;-74
2023/05/01 05:09:10;;;;;;;12.48;8.90;;;;;;;;;;5090185;27;20503;-74
2023/05/01 05:11:36;;;;;;;21.13;10.45;;;;;;;;;;5090509;27;20040;-72
2023/05/01 05:14:02;;;;;;;18.75;9.48;;;;;;;;;;5091394;27;20051;-72
2023/05/01 05:16:29;;;;;;;17.33;10.02;;;;;;;;;;5089663;27;20060;-72
2023/05/01 05:18:56;;;;;;;14.80;9.23;;;;;;;;;;5091959;27;20067;-72
2023/05/01 05:21:22;;;;;;;23.92;9.00;;;;;;;;;;5090552;27;20166;-72
2023/05/01 05:23:48;;;;;;;15.15;8.38;;;;;;;;;;5091888;27;20101;-71
2023/05/01 05:26:14;;;;;;;15.70;8.43;;;;;;;;;;5089326;27;22161;-72
2023/05/01 05:28:40;;;;;;;14.90;8.02;;;;;;;;;;5091264;27;20141;-72
2023/05/01 05:31:07;;;;;;;14.60;8.43;;;;;;;;;;5090805;27;22084;-72
2023/05/01 05:33:33;;;;;;;17.25;8.98;;;;;;;;;;5089125;27;20058;-72
2023/05/01 05:35:59;;;;;;;14.52;7.95;;;;;;;;;;5106875;27;20053;-72
2023/05/01 05:38:25;;;;;;;21.08;8.70;;;;;;;;;;5092999;27;20046;-72
2023/05/01 05:40:53;;;;;;;17.45;8.98;;;;;;;;;;5090028;27;20047;-72
2023/05/01 05:43:19;;;;;;;14.50;8.90;;;;;;;;;;5093342;27;20035;-72
2023/05/01 05:45:45;;;;;;;17.10;9.07;;;;;;;;;;5067887;27;20047;-72
2023/05/01 05:48:11;;;;;;;21.80;9.30;;;;;;;;;;5093270;27;20042;-75
2023/05/01 05:50:38;;;;;;;16.73;8.73;;;;;;;;;;5075802;27;25717;-75
2023/05/01 05:53:05;;;;;;;15.88;8.65;;;;;;;;;;5093148;27;20039;-73
2023/05/01 05:55:31;;;;;;;14.27;8.88;;;;;;;;;;5068753;27;20054;-73
2023/05/01 05:57:57;;;;;;;19.58;9.38;;;;;;;;;;5091835;27;20066;-73
2023/05/01 06:00:23;;;;;;;20.02;8.88;;;;;;;;;;5090619;27;20066;-73
2023/05/01 06:02:50;;;;;;;13.77;8.77;;;;;;;;;;5080445;27;20490;-73
2023/05/01 06:05:16;;;;;;;17.75;9.45;;;;;;;;;;5088952;27;20046;-72
2023/05/01 06:07:42;;;;;;;24.15;9.63;;;;;;;;;;5089897;27;20059;-72
2023/05/01 06:10:08;;;;;;;17.23;8.55;;;;;;;;;;5085804;27;20047;-73
2023/05/01 06:12:34;;;;;;;17.05;9.75;;;;;;;;;;5088556;27;20035;-73
2023/05/01 06:15:01;;;;;;;16.27;9.38;;;;;;;;;;5091789;27;20079;-73
2023/05/01 06:17:27;;;;;;;24.92;9.38;;;;;;;;;;5091088;27;21349;-73
2023/05/01 06:19:54;;;;;;;19.85;9.00;;;;;;;;;;5091967;27;20046;-73
2023/05/01 06:22:20;;;;;;;15.88;8.40;;;;;;;;;;5092270;27;20058;-72
2023/05/01 06:24:46;;;;;;;15.93;8.95;;;;;;;;;;5092876;27;20158;-70
2023/05/01 06:27:13;;;;;;;14.68;8.05;;;;;;;;;;5090336;27;20059;-70
2023/05/01 06:29:39;;;;;;;14.52;9.32;;;;;;;;;;5082416;27;20047;-71
2023/05/01 06:32:05;;;;;;;16.48;8.55;;;;;;;;;;5091378;27;20634;-70
2023/05/01 06:34:31;;;;;;;13.82;8.48;;;;;;;;;;5091539;27;20040;-70
2023/05/01 06:36:57;;;;;;;11.68;8.38;;;;;;;;;;5094198;27;20043;-71
2023/05/01 06:39:23;;;;;;;16.52;9.13;;;;;;;;;;5094396;27;20027;-70
2023/05/01 06:41:50;;;;;;;16.65;9.70;;;;;;;;;;5091963;27;20039;-70
2023/05/01 06:44:16;;;;;;;17.48;9.32;;;;;;;;;;5092195;27;20120;-71
2023/05/01 06:46:42;;;;;;;14.05;8.63;;;;;;;;;;5092141;27;20403;-70
2023/05/01 06:49:08;;;;;;;14.98;9.02;;;;;;;;;;5091850;27;20042;-71
2023/05/01 06:51:34;;;;;;;12.43;9.10;;;;;;;;;;5070825;28;20097;-70
2023/05/01 06:54:01;;;;;;;20.42;9.00;;;;;;;;;;5094506;27;20054;-71
2023/05/01 06:56:27;;;;;;;18.90;10.35;;;;;;;;;;5092389;27;20437;-70
2023/05/01 06:58:53;;;;;;;18.38;9.45;;;;;;;;;;5087465;27;20939;-70
2023/05/01 07:01:19;;;;;;;24.25;8.90;;;;;;;;;;5092511;27;20074;-70
2023/05/01 07:03:45;;;;;;;13.30;9.02;;;;;;;;;;5093193;28;20043;-71
2023/05/01 07:06:11;;;;;;;13.88;9.43;;;;;;;;;;5093329;27;20039;-71
2023/05/01 07:08:37;;;;;;;18.67;9.98;;;;;;;;;;5092219;28;20055;-70
2023/05/01 07:11:03;;;;;;;16.92;9.15;;;;;;;;;;5092480;27;20088;-71
2023/05/01 07:13:29;;;;;;;13.43;8.80;;;;;;;;;;5092174;28;20047;-71
2023/05/01 07:15:55;;;;;;;15.77;9.35;;;;;;;;;;5092362;28;20119;-71
2023/05/01 07:18:22;;;;;;;15.18;9.18;;;;;;;;;;5093212;28;20159;-71
2023/05/01 07:20:49;;;;;;;12.98;9.05;;;;;;;;;;5091304;28;20051;-71
2023/05/01 07:23:15;;;;;;;15.93;8.77;;;;;;;;;;5076217;28;20130;-71
2023/05/01 07:25:43;;;;;;;19.48;9.23;;;;;;;;;;5093342;27;20084;-71
2023/05/01 07:28:09;;;;;;;22.85;8.75;;;;;;;;;;5094124;27;20055;-71
2023/05/01 07:30:36;;;;;;;18.60;9.90;;;;;;;;;;5090920;28;20047;-71
2023/05/01 07:33:04;;;;;;;19.23;9.02;;;;;;;;;;5092709;28;20063;-70
2023/05/01 07:35:31;;;;;;;15.07;9.60;;;;;;;;;;5088661;28;20124;-70
2023/05/01 07:37:57;;;;;;;14.85;9.10;;;;;;;;;;5091792;27;20039;-70
2023/05/01 07:40:23;;;;;;;17.55;10.27;;;;;;;;;;5085459;27;20168;-69
2023/05/01 07:42:49;;;;;;;13.95;8.55;;;;;;;;;;5090315;27;20039;-69
2023/05/01 07:45:16;;;;;;;15.05;5.35;;;;;;;;;;5092929;27;20832;-70
2023/05/01 07:47:42;;;;;;;7.30;4.88;;;;;;;;;;5092066;27;20047;-70
2023/05/01 07:50:11;;;;;;;15.43;8.48;;;;;;;;;;5088277;27;20093;-70
2023/05/01 07:52:38;;;;;;;20.85;8.70;;;;;;;;;;5092869;27;20043;-70
2023/05/01 07:55:05;;;;;;;14.10;8.73;;;;;;;;;;5089965;27;20039;-71
2023/05/01 07:57:34;;;;;;;15.75;6.05;;;;;;;;;;5085805;27;20048;-70
2023/05/01 08:00:00;;;;;;;12.68;8.18;;;;;;;;;;5095962;27;20051;-71
2023/05/01 08:02:26;;;;;;;17.48;8.82;;;;;;;;;;5092355;27;20353;-71
2023/05/01 08:04:52;;;;;;;12.63;7.57;;;;;;;;;;5095132;27;20078;-71
2023/05/01 08:07:18;;;;;;;17.60;7.82;;;;;;;;;;5096752;27;20451;-70
2023/05/01 08:09:45;;;;;;;13.15;7.95;;;;;;;;;;5090435;27;20093;-70
2023/05/01 08:12:12;;;;;;;13.95;8.60;;;;;;;;;;5096897;27;20046;-70
2023/05/01 08:14:38;;;;;;;13.27;8.40;;;;;;;;;;5095388;27;20032;-71
2023/05/01 08:17:04;;;;;;;14.23;9.10;;;;;;;;;;5073691;27;20079;-70
2023/05/01 08:19:30;;;;;;;12.02;7.35;;;;;;;;;;5091876;27;21950;-70
2023/05/01 08:21:56;;;;;;;14.43;9.30;;;;;;;;;;5092716;27;20046;-70
2023/05/01 08:24:22;;;;;;;14.48;8.32;;;;;;;;;;5093224;27;20039;-70
2023/05/01 08:26:49;;;;;;;13.82;8.23;;;;;;;;;;5096658;27;20040;-70
2023/05/01 08:29:15;;;;;;;17.02;8.07;;;;;;;;;;5092504;27;20057;-70
2023/05/01 08:31:42;;;;;;;13.98;7.95;;;;;;;;;;5094194;27;21016;-70
2023/05/01 08:34:08;;;;;;;18.92;9.85;;;;;;;;;;5091757;27;20054;-70
2023/05/01 08:36:34;;;;;;;13.15;8.95;;;;;;;;;;5086083;27;20067;-70
2023/05/01 08:39:00;;;;;;;15.40;8.30;;;;;;;;;;5082609;27;20171;-70
2023/05/01 08:41:28;;;;;;;17.42;9.13;;;;;;;;;;5093983;27;20038;-70
2023/05/01 08:43:57;;;;;;;13.27;7.97;;;;;;;;;;5095922;27;20061;-69
2023/05/01 08:46:44;;;;;;;13.73;8.35;;;;;;;;;;5097630;27;20039;-70
2023/05/01 08:49:12;;;;;;;12.00;8.05;;;;;;;;;;5096092;27;20035;-70
2023/05/01 08:51:38;;;;;;;12.38;8.25;;;;;;;;;;5092934;27;20079;-70
2023/05/01 08:54:07;;;;;;;14.07;7.65;;;;;;;;;;5096671;27;20048;-69
2023/05/01 08:56:35;;;;;;;13.43;7.88;;;;;;;;;;5096151;27;20516;-70
2023/05/01 08:59:04;;;;;;;14.32;8.15;;;;;;;;;;5098344;27;20048;-70
2023/05/01 09:01:32;;;;;;;13.98;7.75;;;;;;;;;;5099285;27;20453;-69
2023/05/01 09:04:02;;;;;;;12.40;8.00;;;;;;;;;;5103862;27;20081;-70
2023/05/01 09:06:28;;;;;;;13.95;8.05;;;;;;;;;;5098039;27;20127;-70
2023/05/01 09:08:55;;;;;;;14.05;8.05;;;;;;;;;;5095711;27;20499;-80
2023/05/01 09:11:22;;;;;;;13.88;8.85;;;;;;;;;;5078416;27;20051;-81
2023/05/01 09:13:48;;;;;;;16.45;8.07;;;;;;;;;;5072844;27;20068;-82
2023/05/01 09:16:14;;;;;;;13.38;6.70;;;;;;;;;;5102736;27;20560;-82
2023/05/01 09:18:43;;;;;;;10.80;6.50;;;;;;;;;;5107513;27;20063;-83
2023/05/01 09:21:11;;;;;;;17.52;7.60;;;;;;;;;;5083624;27;20046;-82
2023/05/01 09:23:37;;;;;;;11.88;7.10;;;;;;;;;;5081954;27;20130;-83
2023/05/01 09:26:07;;;;;;;17.25;7.60;;;;;;;;;;5107568;27;20111;-82
2023/05/01 09:28:43;;;;;;;14.65;6.03;;;;;;;;;;5103544;27;20160;-82
2023/05/01 09:31:22;;;;;;;11.55;8.45;;;;;;;;;;5106898;27;20044;-82
2023/05/01 09:33:58;;;;;;;13.13;8.13;;;;;;;;;;5105604;27;20134;-83
2023/05/01 09:36:25;;;;;;;13.82;6.97;;;;;;;;;;5110080;27;20085;-82
2023/05/01 09:38:52;;;;;;;15.50;8.82;;;;;;;;;;5101621;27;20039;-82
2023/05/01 09:41:19;;;;;;;14.43;8.00;;;;;;;;;;5093481;27;20104;-82
2023/05/01 09:43:49;;;;;;;12.02;7.85;;;;;;;;;;5112339;27;20104;-82
2023/05/01 09:46:16;;;;;;;11.32;7.57;;;;;;;;;;5108428;27;20104;-83
2023/05/01 09:48:52;;;;;;;11.55;6.95;;;;;;;;;;5087566;27;20036;-83
2023/05/01 09:51:22;;;;;;;10.60;6.78;;;;;;;;;;5106954;27;20058;-81
2023/05/01 09:53:49;;;;;;;19.00;7.50;;;;;;;;;;5083242;27;20115;-82
2023/05/01 09:56:16;;;;;;;12.63;7.18;;;;;;;;;;5092809;27;20120;-82
2023/05/01 09:58:43;;;;;;;11.90;7.28;;;;;;;;;;5110787;27;20043;-82
2023/05/01 10:01:09;;;;;;;12.45;6.55;;;;;;;;;;5099875;27;20147;-85
2023/05/01 10:03:35;;;;;;;10.43;6.18;;;;;;;;;;5089997;27;20048;-82
2023/05/01 10:06:02;;;;;;;10.73;6.03;;;;;;;;;;5098492;27;20043;-76
2023/05/01 10:08:45;;;;;;;9.32;6.07;;;;;;;;;;5072045;27;20179;-75
2023/05/01 10:11:11;;;;;;;12.23;6.40;;;;;;;;;;5092981;27;20146;-75
2023/05/01 10:13:37;;;;;;;11.50;7.38;;;;;;;;;;5076015;27;20129;-75
2023/05/01 10:16:06;;;;;;;13.98;6.30;;;;;;;;;;5076039;27;20168;-76
2023/05/01 10:18:36;;;;;;;8.88;6.20;;;;;;;;;;5069546;27;20066;-75
2023/05/01 10:21:03;;;;;;;12.88;6.55;;;;;;;;;;5089214;27;20087;-76
2023/05/01 10:23:29;;;;;;;12.10;6.80;;;;;;;;;;5090356;27;20058;-80
2023/05/01 10:25:57;;;;;;;9.77;6.28;;;;;;;;;;5089607;27;20071;-76
2023/05/01 10:28:24;;;;;;;13.00;6.00;;;;;;;;;;5090320;27;20360;-76
2023/05/01 10:30:51;;;;;;;12.85;6.20;;;;;;;;;;5086683;27;22109;-76
2023/05/01 10:33:18;;;;;;;9.00;5.43;;;;;;;;;;5064217;27;20039;-76
2023/05/01 10:35:46;;;;;;;12.73;6.70;;;;;;;;;;5090056;27;20760;-76
2023/05/01 10:38:18;;;;;;;8.05;6.05;;;;;;;;;;5083207;27;20146;-77
2023/05/01 10:40:45;;;;;;;10.70;5.78;;;;;;;;;;5093328;27;20047;-75
2023/05/01 10:43:19;;;;;;;10.20;6.00;;;;;;;;;;5092998;27;20659;-76
2023/05/01 10:45:46;;;;;;;;;;;;;;;;;;5094530;27;20127;-76
2023/05/01 10:48:12;;;;;;;16.25;5.65;;;;;;;;;;5065835;28;20026;-76
2023/05/01 10:50:57;;;;;;;14.90;6.22;;;;;;;;;;5093912;27;20126;-75
2023/05/01 10:53:23;;;;;;;10.45;5.60;;;;;;;;;;5091304;27;20704;-76
2023/05/01 10:55:49;;;;;;;9.75;5.25;;;;;;;;;;5074561;28;20047;-76
2023/05/01 10:58:34;;;;;;;9.88;5.80;;;;;;;;;;5092301;27;20047;-76
2023/05/01 11:01:19;;;;;;;13.25;6.03;;;;;;;;;;5092189;27;20051;-78
2023/05/01 11:03:45;;;;;;;11.00;6.32;;;;;;;;;;5093666;28;20288;-75
2023/05/01 11:06:12;;;;;;;13.75;6.85;;;;;;;;;;5090475;27;20047;-75
2023/05/01 11:08:38;;;;;;;12.32;6.57;;;;;;;;;;5093514;28;20035;-76
2023/05/01 11:11:20;;;;;;;13.38;6.35;;;;;;;;;;5066617;28;20051;-76
2023/05/01 11:13:55;;;;;;;10.27;6.57;;;;;;;;;;5084551;28;20044;-76
2023/05/01 11:16:43;;;;;;;11.80;6.40;;;;;;;;;;5091129;27;20074;-76
2023/05/01 11:19:10;;;;;;;13.70;7.50;;;;;;;;;;5096337;27;20122;-76
2023/05/01 11:21:40;;;;;;;13.80;6.97;;;;;;;;;;5094499;27;20084;-76
2023/05/01 11:24:07;;;;;;;13.77;7.07;;;;;;;;;;5076060;27;20039;-75
2023/05/01 11:26:38;;;;;;;15.88;6.60;;;;;;;;;;5098317;27;20495;-76
2023/05/01 11:29:04;;;;;;;10.57;5.85;;;;;;;;;;5097025;27;20502;-76
2023/05/01 11:31:30;;;;;;;9.60;5.65;;;;;;;;;;5098108;27;20093;-76
2023/05/01 11:33:57;;;;;;;12.30;5.80;;;;;;;;;;5077538;27;20147;-76
2023/05/01 11:36:23;;;;;;;10.02;5.57;;;;;;;;;;5086798;27;20080;-76
2023/05/01 11:38:55;;;;;;;8.23;5.15;;;;;;;;;;5069405;27;20046;-76
2023/05/01 11:41:21;;;;;;;10.73;5.72;;;;;;;;;;5097336;27;20547;-76
2023/05/01 11:43:57;;;;;;;9.98;5.20;;;;;;;;;;5093339;27;20043;-76
2023/05/01 11:46:26;;;;;;;9.95;4.72;;;;;;;;;;5073445;27;20070;-76
2023/05/01 11:48:53;;;;;;;10.80;4.53;;;;;;;;;;5094055;27;20080;-76
2023/05/01 11:51:19;;;;;;;12.90;5.53;;;;;;;;;;5094440;27;20050;-76
2023/05/01 11:54:02;;;;;;;9.18;4.68;;;;;;;;;;5068685;27;20552;-77
2023/05/01 11:56:28;;;;;;;8.63;4.57;;;;;;;;;;5077663;27;20040;-83
2023/05/01 11:58:56;;;;;;;8.05;3.90;;;;;;;;;;5110507;27;20054;-83
2023/05/01 12:01:33;;;;;;;11.07;3.95;;;;;;;;;;5109317;27;20048;-84
2023/05/01 12:03:59;;;;;;;8.50;3.53;;;;;;;;;;5107752;27;20120;-84
2023/05/01 12:06:35;;;;;;;8.27;3.38;;;;;;;;;;5100466;27;20028;-85
2023/05/01 12:09:01;;;;;;;8.77;3.80;;;;;;;;;;5086818;27;20130;-83
2023/05/01 12:11:28;;;;;;;16.52;3.33;;;;;;;;;;5089335;27;20047;-84
2023/05/01 12:13:54;;;;;;;7.75;3.10;;;;;;;;;;5106490;27;20077;-82
2023/05/01 12:16:20;;;;;;;8.27;3.38;;;;;;;;;;5102278;27;20044;-81
2023/05/01 12:18:47;;;;;;;3.55;1.52;;;;;;;;;;5090213;27;20051;-83
2023/05/01 12:21:19;;;;;;;5.05;1.83;;;;;;;;;;5078563;27;20081;-83
2023/05/01 12:23:45;;;;;;;5.05;1.33;;;;;;;;;;5109490;27;20085;-85
2023/05/01 12:26:18;;;;;;;3.13;1.40;;;;;;;;;;5097315;27;20054;-85
2023/05/01 12:28:54;;;;;;;2.45;1.35;;;;;;;;;;5107119;27;20043;-83
2023/05/01 12:31:21;;;;;;;1.92;1.08;;;;;;;;;;5104552;27;20078;-82
2023/05/01 12:33:53;;;;;;;4.78;1.55;;;;;;;;;;5109324;27;20120;-83
2023/05/01 12:36:24;;;;;;;2.13;1.30;;;;;;;;;;5098845;27;20040;-84
2023/05/01 12:38:56;;;;;;;5.18;1.60;;;;;;;;;;5108649;27;20055;-84
2023/05/01 12:41:31;;;;;;;5.82;2.03;;;;;;;;;;5104987;27;20032;-84
2023/05/01 12:43:57;;;;;;;2.75;1.55;;;;;;;;;;5108763;27;20074;-82
2023/05/01 12:46:23;;;;;;;5.60;2.35;;;;;;;;;;5108296;27;20169;-83
2023/05/01 12:48:50;;;;;;;5.05;1.75;;;;;;;;;;5109181;27;20050;-84
2023/05/01 12:51:19;;;;;;;4.43;1.67;;;;;;;;;;5108506;27;20050;-84
2023/05/01 12:53:45;;;;;;;5.78;2.05;;;;;;;;;;5086036;27;20061;-83
2023/05/01 12:56:22;;;;;;;5.40;1.88;;;;;;;;;;5109753;27;20163;-84
2023/05/01 12:58:48;;;;;;;7.75;2.65;;;;;;;;;;5107584;27;20066;-83
2023/05/01 13:01:23;;;;;;;6.35;3.15;;;;;;;;;;5108264;27;20131;-84
2023/05/01 13:03:50;;;;;;;6.65;2.65;;;;;;;;;;5110037;27;20537;-83
2023/05/01 13:06:16;;;;;;;7.40;3.00;;;;;;;;;;5083884;27;20048;-83
2023/05/01 13:08:43;;;;;;;5.53;2.90;;;;;;;;;;5105772;27;20044;-85
2023/05/01 13:11:13;;;;;;;4.30;2.55;;;;;;;;;;5094326;27;20536;-75
2023/05/01 13:13:39;;;;;;;4.68;2.33;;;;;;;;;;5090473;27;20373;-76
2023/05/01 13:16:05;;;;;;;6.13;2.70;;;;;;;;;;5084485;27;21264;-76
2023/05/01 13:18:33;;;;;;;7.63;2.42;;;;;;;;;;5106860;27;20079;-76
2023/05/01 13:21:09;;;;;;;4.57;2.20;;;;;;;;;;5090001;27;20139;-76
2023/05/01 13:23:36;;;;;;;5.13;2.40;;;;;;;;;;5099924;27;20077;-76
2023/05/01 13:26:03;;;;;;;7.25;2.80;;;;;;;;;;5088914;27;20047;-76
2023/05/01 13:28:31;;;;;;;4.20;2.35;;;;;;;;;;5081803;27;20035;-76
2023/05/01 13:30:57;;;;;;;7.05;2.55;;;;;;;;;;5090646;27;20586;-76
2023/05/01 13:33:23;;;;;;;4.60;2.45;;;;;;;;;;5073587;27;20051;-74
2023/05/01 13:35:49;;;;;;;4.97;2.03;;;;;;;;;;5079944;27;20104;-76
2023/05/01 13:38:15;;;;;;;4.55;2.10;;;;;;;;;;5082511;27;20066;-76
2023/05/01 13:40:41;;;;;;;4.45;2.30;;;;;;;;;;5062976;27;20072;-76
2023/05/01 13:43:15;;;;;;;5.10;2.38;;;;;;;;;;5072119;28;21087;-76
2023/05/01 13:45:41;;;;;;;5.43;2.95;;;;;;;;;;5091322;27;20096;-76
2023/05/01 13:48:08;;;;;;;6.28;2.30;;;;;;;;;;5089362;27;21054;-76
2023/05/01 13:50:34;;;;;;;5.05;2.60;;;;;;;;;;5088600;27;20117;-76
2023/05/01 13:53:06;;;;;;;6.78;2.47;;;;;;;;;;5095308;27;20046;-76
2023/05/01 13:55:32;;;;;;;7.20;2.65;;;;;;;;;;5085731;27;20039;-74
2023/05/01 13:58:01;;;;;;;6.82;2.67;;;;;;;;;;5060833;27;20931;-73
2023/05/01 14:00:27;;;;;;;4.53;2.22;;;;;;;;;;5088851;27;20181;-74
2023/05/01 14:02:55;;;;;;;5.38;2.20;;;;;;;;;;5081944;27;20051;-74
2023/05/01 14:05:24;;;;;;;4.07;2.28;;;;;;;;;;5085088;27;20123;-75
2023/05/01 14:07:54;;;;;;;4.97;2.00;;;;;;;;;;5090152;27;20059;-75
2023/05/01 14:10:21;;;;;;;7.80;2.70;;;;;;;;;;5073632;27;20043;-75
2023/05/01 14:13:05;;;;;;;4.55;2.38;;;;;;;;;;5086678;27;20064;-77
2023/05/01 14:15:35;;;;;;;6.00;2.65;;;;;;;;;;5084517;27;20039;-76
2023/05/01 14:18:07;;;;;;;8.65;2.90;;;;;;;;;;5080558;27;20052;-76
2023/05/01 14:20:34;;;;;;;6.15;2.50;;;;;;;;;;5062392;27;20048;-75
2023/05/01 14:23:00;;;;;;;7.65;2.70;;;;;;;;;;5081041;27;20267;-74
2023/05/01 14:25:31;;;;;;;7.50;2.53;;;;;;;;;;5065730;27;20710;-74
2023/05/01 14:27:59;;;;;;;8.10;2.15;;;;;;;;;;5084592;27;20058;-75
2023/05/01 14:30:32;;;;;;;10.13;2.53;;;;;;;;;;5088598;27;20547;-75
2023/05/01 14:32:58;;;;;;;4.63;2.30;;;;;;;;;;5084636;27;21174;-75
2023/05/01 14:35:25;;;;;;;6.50;2.60;;;;;;;;;;5084923;27;20616;-75
2023/05/01 14:37:51;;;;;;;4.70;2.17;;;;;;;;;;5078884;27;20095;-74